Terminal Aerodrome Forecast
Issued by NWS Shreveport, LA

Home | Current Version | Previous Version | Text Only | Print | Product List | Glossary On
Versions: 1 2 3 4 5 6 7 8 9 10 11 12 13 14 15 16 17 18 19 20 21 22 23
711
FTUS44 KSHV 301158
TAFTXK
TAF
KTXK 301158Z 3012/3112 VRB03KT P6SM BKN050 BKN150
      TEMPO 3012/3014 5SM BR FEW030 BKN045 OVC130
     FM301500 VRB04KT P6SM SCT040 SCT150
     FM302100 14006KT P6SM BKN050 OVC150
     FM310200 14003KT P6SM BKN250
     FM310400 VRB04KT P6SM VCTS BKN040CB OVC060
     FM310800 14003KT P6SM BKN060 OVC250=

USA.gov is the U.S. government's official web portal to all federal, state and local government web resources and services.